createdAt,value
2018-03-20T00:01:30.268Z,92073.50
2018-03-20T00:03:56.629Z,92071.59
2018-03-20T00:06:23.143Z,92071.31
2018-03-20T00:08:49.572Z,92080.34
2018-03-20T00:11:16.015Z,92079.70
2018-03-20T00:13:42.341Z,92086.95
2018-03-20T00:16:08.697Z,92084.72
2018-03-20T00:18:35.180Z,92084.31
2018-03-20T00:21:01.557Z,92086.88
2018-03-20T00:23:27.895Z,92084.39
2018-03-20T00:25:54.277Z,92081.52
2018-03-20T00:28:20.718Z,92084.81
2018-03-20T00:30:47.145Z,92079.88
2018-03-20T00:33:13.644Z,92081.09
2018-03-20T00:35:39.978Z,92081.81
2018-03-20T00:38:06.463Z,92083.50
2018-03-20T00:40:32.915Z,92082.61
2018-03-20T00:42:59.435Z,92084.03
2018-03-20T00:45:25.777Z,92075.27
2018-03-20T00:47:52.308Z,92073.13
2018-03-20T00:50:18.763Z,92074.14
2018-03-20T00:52:45.104Z,92073.61
2018-03-20T00:55:11.479Z,92072.72
2018-03-20T00:57:37.949Z,92072.43
2018-03-20T01:00:04.307Z,92072.18
2018-03-20T01:02:30.752Z,92069.22
2018-03-20T01:04:57.108Z,92067.88
2018-03-20T01:07:23.497Z,92067.74
2018-03-20T01:09:49.933Z,92060.20
2018-03-20T01:12:16.227Z,92066.05
2018-03-20T01:14:42.647Z,92069.22
2018-03-20T01:17:09.021Z,92075.01
2018-03-20T01:19:35.467Z,92079.19
2018-03-20T01:22:01.797Z,92075.13
2018-03-20T01:24:28.103Z,92082.76
2018-03-20T01:26:55.586Z,92086.59
2018-03-20T01:29:21.974Z,92082.47
2018-03-20T01:31:48.354Z,92084.92
2018-03-20T01:34:14.740Z,92083.84
2018-03-20T01:36:41.091Z,92086.05
2018-03-20T01:39:07.605Z,92087.48
2018-03-20T01:41:33.972Z,92088.45
2018-03-20T01:44:00.269Z,92090.63
2018-03-20T01:46:26.638Z,92091.27
2018-03-20T01:48:53.041Z,92099.32
2018-03-20T01:51:19.367Z,92099.25
2018-03-20T01:53:45.741Z,92096.83
2018-03-20T01:56:12.082Z,92091.84
2018-03-20T01:58:38.499Z,92090.05
2018-03-20T02:01:04.908Z,92098.70
2018-03-20T02:03:31.411Z,92087.27
2018-03-20T02:05:57.704Z,92096.62
2018-03-20T02:08:24.196Z,92097.44
2018-03-20T02:10:50.572Z,92103.62
2018-03-20T02:13:16.903Z,92110.55
2018-03-20T02:15:43.344Z,92108.12
2018-03-20T02:18:09.710Z,92105.98
2018-03-20T02:20:36.060Z,92110.61
2018-03-20T02:23:02.487Z,92108.45
2018-03-20T02:25:28.811Z,92114.84
2018-03-20T02:27:55.210Z,92116.89
2018-03-20T02:30:21.588Z,92113.03
2018-03-20T02:32:47.896Z,92110.13
2018-03-20T02:35:14.337Z,92110.81
2018-03-20T02:37:40.844Z,92108.00
2018-03-20T02:40:07.197Z,92110.16
2018-03-20T02:42:33.498Z,92102.07
2018-03-20T02:44:59.869Z,92108.05
2018-03-20T02:47:26.202Z,92106.13
2018-03-20T02:49:52.527Z,92109.72
2018-03-20T02:52:19.702Z,92106.44
2018-03-20T02:54:46.030Z,92105.20
2018-03-20T02:57:12.342Z,92104.14
2018-03-20T02:59:38.662Z,92103.39
2018-03-20T03:02:05.030Z,92105.83
2018-03-20T03:04:31.325Z,92104.48
2018-03-20T03:06:57.666Z,92101.59
2018-03-20T03:09:25.093Z,92100.09
2018-03-20T03:11:51.385Z,92100.78
2018-03-20T03:14:17.791Z,92105.20
2018-03-20T03:16:44.106Z,92112.08
2018-03-20T03:19:10.436Z,92109.41
2018-03-20T03:21:36.752Z,92109.81
2018-03-20T03:24:03.046Z,92110.56
2018-03-20T03:26:29.549Z,92103.40
2018-03-20T03:28:56.101Z,92112.37
2018-03-20T03:31:22.400Z,92111.09
2018-03-20T03:33:48.734Z,92108.98
2018-03-20T03:36:15.075Z,92116.07
2018-03-20T03:38:42.259Z,92131.71
2018-03-20T03:41:08.561Z,92132.29
2018-03-20T03:43:34.904Z,92134.44
2018-03-20T03:46:01.265Z,92139.83
2018-03-20T03:48:27.686Z,92138.81
2018-03-20T03:50:54.090Z,92145.55
2018-03-20T03:53:20.401Z,92147.83
2018-03-20T03:55:46.719Z,92151.19
2018-03-20T03:58:13.103Z,92151.84
2018-03-20T04:00:39.516Z,92152.68
2018-03-20T04:03:05.869Z,92156.92
2018-03-20T04:05:32.215Z,92156.70
2018-03-20T04:07:58.614Z,92162.96
2018-03-20T04:10:24.952Z,92162.91
2018-03-20T04:12:51.344Z,92170.52
2018-03-20T04:15:17.689Z,92171.80
2018-03-20T04:17:44.081Z,92171.39
2018-03-20T04:20:10.604Z,92170.59
2018-03-20T04:22:36.969Z,92182.52
2018-03-20T04:25:03.415Z,92196.36
2018-03-20T04:27:29.769Z,92186.66
2018-03-20T04:29:56.130Z,92192.34
2018-03-20T04:32:22.421Z,92203.03
2018-03-20T04:34:48.783Z,92203.14
2018-03-20T04:37:15.120Z,92210.17
2018-03-20T04:39:41.623Z,92203.37
2018-03-20T04:42:07.979Z,92211.45
2018-03-20T04:44:34.298Z,92213.78
2018-03-20T04:47:00.611Z,92219.59
2018-03-20T04:49:27.081Z,92223.67
2018-03-20T04:51:53.434Z,92234.30
2018-03-20T04:54:19.773Z,92230.62
2018-03-20T04:56:46.171Z,92239.27
2018-03-20T04:59:12.644Z,92241.97
2018-03-20T05:01:39.061Z,92239.47
2018-03-20T05:04:05.431Z,92239.48
2018-03-20T05:06:31.743Z,92240.34
2018-03-20T05:08:58.141Z,92242.14
2018-03-20T05:11:24.564Z,92246.22
2018-03-20T05:13:50.912Z,92247.45
2018-03-20T05:16:17.341Z,92245.48
2018-03-20T05:18:44.636Z,92253.06
2018-03-20T05:21:16.902Z,92248.21
2018-03-20T05:23:56.119Z,92246.88
2018-03-20T05:26:22.556Z,92243.39
2018-03-20T05:28:48.942Z,92254.27
2018-03-20T05:31:15.388Z,92250.23
2018-03-20T05:33:41.751Z,92253.41
2018-03-20T05:36:08.225Z,92261.70
2018-03-20T05:38:34.797Z,92266.55
2018-03-20T05:41:01.198Z,92266.22
2018-03-20T05:43:27.585Z,92268.84
2018-03-20T05:45:54.020Z,92274.98
2018-03-20T05:48:20.447Z,92279.71
2018-03-20T05:50:52.894Z,92278.89
2018-03-20T05:53:19.386Z,92281.34
2018-03-20T05:55:45.783Z,92289.13
2018-03-20T05:58:12.228Z,92295.70
2018-03-20T06:00:38.617Z,92305.68
2018-03-20T06:03:04.902Z,92297.45
2018-03-20T06:05:31.332Z,92304.88
2018-03-20T06:07:57.745Z,92302.41
2018-03-20T06:10:24.092Z,92311.55
2018-03-20T06:12:50.457Z,92314.65
2018-03-20T06:15:16.798Z,92323.38
2018-03-20T06:17:43.147Z,92321.10
2018-03-20T06:20:09.613Z,92331.26
2018-03-20T06:22:36.018Z,92325.70
2018-03-20T06:25:02.361Z,92332.71
2018-03-20T06:27:28.759Z,92328.44
2018-03-20T06:29:55.190Z,92330.44
2018-03-20T06:32:21.593Z,92337.34
2018-03-20T06:34:47.959Z,92342.84
2018-03-20T06:37:14.375Z,92329.84
2018-03-20T06:39:40.836Z,92329.47
2018-03-20T06:42:07.280Z,92332.20
2018-03-20T06:44:33.776Z,92339.22
2018-03-20T06:47:00.178Z,92352.14
2018-03-20T06:49:26.647Z,92350.25
2018-03-20T06:51:53.005Z,92361.56
2018-03-20T06:54:19.448Z,92369.14
2018-03-20T06:56:45.944Z,92368.23
2018-03-20T06:59:12.433Z,92367.73
2018-03-20T07:01:38.987Z,92368.45
2018-03-20T07:04:05.518Z,92367.31
2018-03-20T07:06:31.954Z,92357.13
2018-03-20T07:08:58.499Z,92356.41
2018-03-20T07:11:25.001Z,92356.37
2018-03-20T07:13:51.933Z,92363.08
2018-03-20T07:16:18.769Z,92370.54
2018-03-20T07:18:45.378Z,92366.55
2018-03-20T07:21:11.899Z,92366.56
2018-03-20T07:23:38.278Z,92364.20
2018-03-20T07:26:04.799Z,92371.70
2018-03-20T07:28:31.251Z,92381.36
2018-03-20T07:30:57.749Z,92381.14
2018-03-20T07:33:24.246Z,92389.44
2018-03-20T07:35:50.625Z,92383.86
2018-03-20T07:38:16.987Z,92388.69
2018-03-20T07:40:43.415Z,92391.63
2018-03-20T07:43:09.764Z,92401.20
2018-03-20T07:45:36.113Z,92393.69
2018-03-20T07:48:02.580Z,92395.64
2018-03-20T07:50:28.900Z,92406.03
2018-03-20T07:52:55.221Z,92418.72
2018-03-20T07:55:21.687Z,92416.59
2018-03-20T07:57:48.172Z,92412.78
2018-03-20T08:00:14.590Z,92414.60
2018-03-20T08:02:41.174Z,92422.75
2018-03-20T08:05:07.568Z,92425.02
2018-03-20T08:07:34.074Z,92423.16
2018-03-20T08:10:00.753Z,92428.16
2018-03-20T08:12:27.113Z,92436.20
2018-03-20T08:14:53.536Z,92436.35
2018-03-20T08:17:19.919Z,92429.56
2018-03-20T08:19:46.354Z,92424.37
2018-03-20T08:22:12.717Z,92432.08
2018-03-20T08:24:39.104Z,92431.44
2018-03-20T08:27:05.488Z,92434.89
2018-03-20T08:29:31.900Z,92432.92
2018-03-20T08:31:58.327Z,92437.80
2018-03-20T08:34:24.703Z,92442.38
2018-03-20T08:36:51.161Z,92448.28
2018-03-20T08:39:17.754Z,92447.17
2018-03-20T08:41:44.111Z,92447.42
2018-03-20T08:44:10.501Z,92458.07
2018-03-20T08:46:36.966Z,92462.74
2018-03-20T08:49:03.365Z,92464.83
2018-03-20T08:51:29.731Z,92461.84
2018-03-20T08:53:56.146Z,92462.92
2018-03-20T08:56:22.624Z,92459.73
2018-03-20T08:58:48.987Z,92455.92
2018-03-20T09:01:15.394Z,92459.29
2018-03-20T09:03:41.884Z,92460.17
2018-03-20T09:06:08.363Z,92463.56
2018-03-20T09:08:34.818Z,92459.73
2018-03-20T09:11:01.153Z,92463.28
2018-03-20T09:13:27.636Z,92470.80
2018-03-20T09:15:54.151Z,92470.17
2018-03-20T09:18:20.568Z,92470.64
2018-03-20T09:20:47.010Z,92479.48
2018-03-20T09:23:13.481Z,92475.67
2018-03-20T09:25:39.979Z,92476.80
2018-03-20T09:28:06.450Z,92476.70
2018-03-20T09:30:33.031Z,92469.53
2018-03-20T09:32:59.804Z,92473.27
2018-03-20T09:35:26.210Z,92469.26
2018-03-20T09:37:52.616Z,92465.89
2018-03-20T09:40:19.105Z,92472.92
2018-03-20T09:42:45.582Z,92472.44
2018-03-20T09:45:12.022Z,92473.44
2018-03-20T09:47:38.449Z,92480.38
2018-03-20T09:50:04.937Z,92474.56
2018-03-20T09:52:31.554Z,92475.61
2018-03-20T09:54:57.922Z,92475.70
2018-03-20T09:57:24.538Z,92479.03
2018-03-20T09:59:51.180Z,92479.73
2018-03-20T10:02:17.599Z,92482.06
2018-03-20T10:04:43.934Z,92488.23
2018-03-20T10:07:10.377Z,92483.20
2018-03-20T10:09:36.968Z,92485.61
2018-03-20T10:12:03.337Z,92482.34
2018-03-20T10:14:29.767Z,92492.66
2018-03-20T10:16:56.221Z,92485.23
2018-03-20T10:19:22.764Z,92488.92
2018-03-20T10:21:49.216Z,92493.63
2018-03-20T10:24:15.735Z,92501.76
2018-03-20T10:26:42.175Z,92499.67
2018-03-20T10:29:08.672Z,92503.66
2018-03-20T10:31:35.205Z,92496.20
2018-03-20T10:34:01.564Z,92509.27
2018-03-20T10:36:28.297Z,92512.75
2018-03-20T10:38:54.853Z,92512.28
2018-03-20T10:41:21.456Z,92511.02
2018-03-20T10:43:47.897Z,92511.39
2018-03-20T10:46:14.379Z,92500.64
2018-03-20T10:48:40.819Z,92502.56
2018-03-20T10:51:08.265Z,92502.17
2018-03-20T10:53:34.697Z,92510.23
2018-03-20T10:56:01.246Z,92509.47
2018-03-20T10:58:27.730Z,92503.97
2018-03-20T11:01:00.381Z,92497.36
2018-03-20T11:03:26.788Z,92499.77
2018-03-20T11:05:53.168Z,92504.86
2018-03-20T11:08:19.731Z,92506.84
2018-03-20T11:10:46.287Z,92509.88
2018-03-20T11:13:13.696Z,92512.07
2018-03-20T11:15:40.184Z,92512.07
2018-03-20T11:18:06.808Z,92514.47
2018-03-20T11:20:33.254Z,92519.46
2018-03-20T11:22:59.939Z,92519.14
2018-03-20T11:25:26.424Z,92512.99
2018-03-20T11:27:52.883Z,92511.89
2018-03-20T11:30:19.414Z,92505.83
2018-03-20T11:32:45.875Z,92502.08
2018-03-20T11:35:12.242Z,92498.35
2018-03-20T11:37:38.811Z,92517.31
2018-03-20T11:40:05.306Z,92517.25
2018-03-20T11:42:31.812Z,92517.27
2018-03-20T11:44:58.372Z,92501.59
2018-03-20T11:47:24.815Z,92501.37
2018-03-20T11:49:51.231Z,92504.27
2018-03-20T11:52:17.681Z,92504.94
2018-03-20T11:54:44.089Z,92500.19
2018-03-20T11:57:10.531Z,92501.53
2018-03-20T11:59:37.656Z,92509.88
2018-03-20T12:02:04.072Z,92500.78
2018-03-20T12:04:30.453Z,92506.86
2018-03-20T12:06:58.215Z,92516.55
2018-03-20T12:09:48.762Z,92504.88
2018-03-20T12:12:15.198Z,92517.23
2018-03-20T12:14:41.569Z,92515.59
2018-03-20T12:17:08.069Z,92522.46
2018-03-20T12:19:34.598Z,92512.30
2018-03-20T12:22:01.050Z,92523.30
2018-03-20T12:24:27.560Z,92526.12
2018-03-20T12:26:53.956Z,92524.30
2018-03-20T12:29:20.414Z,92521.06
2018-03-20T12:31:46.769Z,92522.57
2018-03-20T12:34:13.162Z,92527.33
2018-03-20T12:36:39.539Z,92523.18
2018-03-20T12:39:06.020Z,92524.36
2018-03-20T12:41:32.543Z,92525.98
2018-03-20T12:43:58.945Z,92530.77
2018-03-20T12:46:25.288Z,92529.28
2018-03-20T12:48:52.479Z,92529.61
2018-03-20T12:51:18.835Z,92535.94
2018-03-20T12:53:45.315Z,92543.78
2018-03-20T12:56:11.739Z,92535.62
2018-03-20T12:58:38.242Z,92533.97
2018-03-20T13:01:04.767Z,92533.25
2018-03-20T13:03:31.236Z,92519.22
2018-03-20T13:05:57.734Z,92530.81
2018-03-20T13:08:24.172Z,92526.03
2018-03-20T13:10:50.568Z,92533.13
2018-03-20T13:13:17.178Z,92537.42
2018-03-20T13:15:43.664Z,92531.80
2018-03-20T13:18:10.005Z,92539.89
2018-03-20T13:20:36.431Z,92540.63
2018-03-20T13:23:02.950Z,92529.80
2018-03-20T13:25:29.282Z,92532.48
2018-03-20T13:27:55.666Z,92539.05
2018-03-20T13:30:22.273Z,92529.66
2018-03-20T13:32:48.691Z,92539.41
2018-03-20T13:35:15.031Z,92542.05
2018-03-20T13:37:41.731Z,92539.58
2018-03-20T13:40:08.630Z,92533.47
2018-03-20T13:42:35.017Z,92542.38
2018-03-20T13:45:01.367Z,92537.52
2018-03-20T13:47:27.801Z,92540.44
2018-03-20T13:49:54.287Z,92547.75
2018-03-20T13:52:20.811Z,92553.30
2018-03-20T13:54:47.261Z,92554.82
2018-03-20T13:57:13.609Z,92562.25
2018-03-20T13:59:40.227Z,92559.72
2018-03-20T14:02:06.575Z,92558.77
2018-03-20T14:04:33.041Z,92563.64
2018-03-20T14:07:00.844Z,92567.58
2018-03-20T14:09:27.678Z,92568.61
2018-03-20T14:11:54.339Z,92561.98
2018-03-20T14:14:21.169Z,92567.20
2018-03-20T14:16:48.245Z,92575.22
2018-03-20T14:19:14.927Z,92583.02
2018-03-20T14:21:41.436Z,92585.28
2018-03-20T14:24:07.946Z,92586.88
2018-03-20T14:26:34.353Z,92587.52
2018-03-20T14:29:01.049Z,92598.16
2018-03-20T14:31:28.858Z,92601.41
2018-03-20T14:33:55.286Z,92600.05
2018-03-20T14:36:21.673Z,92596.10
2018-03-20T14:38:48.100Z,92596.75
2018-03-20T14:41:14.650Z,92597.18
2018-03-20T14:43:41.103Z,92587.16
2018-03-20T14:46:07.445Z,92592.52
2018-03-20T14:48:33.880Z,92590.28
2018-03-20T14:51:00.377Z,92596.14
2018-03-20T14:53:26.705Z,92600.87
2018-03-20T14:55:53.160Z,92605.00
2018-03-20T14:58:19.606Z,92606.00
2018-03-20T15:00:46.033Z,92620.70
2018-03-20T15:03:12.386Z,92617.45
2018-03-20T15:05:38.885Z,92619.14
2018-03-20T15:08:05.253Z,92616.16
2018-03-20T15:10:31.743Z,92615.30
2018-03-20T15:12:58.359Z,92614.41
2018-03-20T15:15:24.712Z,92621.34
2018-03-20T15:17:51.169Z,92621.45
2018-03-20T15:20:17.853Z,92618.99
2018-03-20T15:22:44.399Z,92631.01
2018-03-20T15:25:10.765Z,92631.75
2018-03-20T15:27:37.277Z,92633.17
2018-03-20T15:30:04.006Z,92636.81
2018-03-20T15:32:30.664Z,92645.46
2018-03-20T15:34:57.186Z,92647.11
2018-03-20T15:37:23.701Z,92653.42
2018-03-20T15:39:51.222Z,92655.53
2018-03-20T15:42:17.967Z,92665.23
2018-03-20T15:44:44.328Z,92679.22
2018-03-20T15:47:10.750Z,92686.45
2018-03-20T15:49:37.167Z,92679.07
2018-03-20T15:52:03.573Z,92672.41
2018-03-20T15:54:30.009Z,92683.39
2018-03-20T15:56:56.655Z,92684.81
2018-03-20T15:59:23.347Z,92689.70
2018-03-20T16:01:49.940Z,92696.95
2018-03-20T16:04:16.718Z,92705.41
2018-03-20T16:06:43.365Z,92719.06
2018-03-20T16:09:09.988Z,92721.13
2018-03-20T16:11:36.499Z,92725.84
2018-03-20T16:14:02.885Z,92725.19
2018-03-20T16:16:29.327Z,92734.46
2018-03-20T16:18:56.075Z,92741.86
2018-03-20T16:21:22.531Z,92746.50
2018-03-20T16:23:49.600Z,92743.39
2018-03-20T16:26:16.564Z,92744.69
2018-03-20T16:28:43.550Z,92748.09
2018-03-20T16:31:10.358Z,92760.69
2018-03-20T16:33:38.250Z,92765.00
2018-03-20T16:36:04.948Z,92762.73
2018-03-20T16:38:31.831Z,92762.00
2018-03-20T16:40:58.685Z,92768.72
2018-03-20T16:43:25.362Z,92772.16
2018-03-20T16:45:52.233Z,92768.15
2018-03-20T16:48:19.640Z,92776.02
2018-03-20T16:50:46.453Z,92779.46
2018-03-20T16:53:13.118Z,92774.66
2018-03-20T16:55:39.763Z,92780.95
2018-03-20T16:58:06.448Z,92783.61
2018-03-20T17:00:33.257Z,92792.36
2018-03-20T17:03:00.338Z,92792.66
2018-03-20T17:05:27.049Z,92806.87
2018-03-20T17:07:53.651Z,92810.27
2018-03-20T17:10:20.508Z,92817.96
2018-03-20T17:12:47.214Z,92817.47
2018-03-20T17:15:14.034Z,92820.05
2018-03-20T17:17:40.936Z,92816.73
2018-03-20T17:20:08.273Z,92820.58
2018-03-20T17:22:34.971Z,92824.19
2018-03-20T17:25:01.794Z,92829.29
2018-03-20T17:27:28.456Z,92824.25
2018-03-20T17:29:55.336Z,92837.08
2018-03-20T17:32:22.242Z,92837.03
2018-03-20T17:34:49.020Z,92846.88
2018-03-20T17:37:15.765Z,92839.41
2018-03-20T17:39:42.564Z,92844.06
2018-03-20T17:42:09.234Z,92844.48
2018-03-20T17:44:35.951Z,92845.68
2018-03-20T17:47:03.487Z,92845.00
2018-03-20T17:49:30.325Z,92844.62
2018-03-20T17:51:57.499Z,92852.34
2018-03-20T17:54:24.255Z,92851.36
2018-03-20T17:56:50.971Z,92859.09
2018-03-20T17:59:17.657Z,92855.42
2018-03-20T18:01:44.428Z,92859.02
2018-03-20T18:04:11.183Z,92871.29
2018-03-20T18:06:37.954Z,92877.91
2018-03-20T18:09:04.743Z,92878.41
2018-03-20T18:11:31.399Z,92881.72
2018-03-20T18:13:58.165Z,92888.81
2018-03-20T18:16:24.972Z,92887.09
2018-03-20T18:18:52.614Z,92885.34
2018-03-20T18:21:19.596Z,92893.14
2018-03-20T18:23:46.338Z,92895.69
2018-03-20T18:26:13.252Z,92898.55
2018-03-20T18:28:40.282Z,92891.22
2018-03-20T18:31:07.152Z,92885.03
2018-03-20T18:33:33.778Z,92889.42
2018-03-20T18:36:00.541Z,92898.89
2018-03-20T18:38:27.335Z,92907.03
2018-03-20T18:40:54.307Z,92900.11
2018-03-20T18:43:21.050Z,92898.00
2018-03-20T18:45:47.681Z,92899.83
2018-03-20T18:48:14.430Z,92915.06
2018-03-20T18:50:41.367Z,92912.35
2018-03-20T18:53:08.110Z,92920.44
2018-03-20T18:55:34.836Z,92914.82
2018-03-20T18:58:01.570Z,92913.98
2018-03-20T19:00:28.223Z,92921.77
2018-03-20T19:02:55.731Z,92921.70
2018-03-20T19:05:22.510Z,92922.89
2018-03-20T19:07:49.274Z,92928.62
2018-03-20T19:10:17.054Z,92927.05
2018-03-20T19:12:43.803Z,92927.67
2018-03-20T19:15:10.507Z,92929.42
2018-03-20T19:17:37.083Z,92928.52
2018-03-20T19:20:03.986Z,92932.18
2018-03-20T19:22:30.775Z,92933.02
2018-03-20T19:24:57.484Z,92936.74
2018-03-20T19:27:24.834Z,92932.34
2018-03-20T19:29:51.510Z,92936.61
2018-03-20T19:32:18.385Z,92942.36
2018-03-20T19:34:45.136Z,92939.02
2018-03-20T19:37:11.859Z,92945.35
2018-03-20T19:39:38.537Z,92950.81
2018-03-20T19:42:05.805Z,92954.59
2018-03-20T19:44:32.676Z,92956.47
2018-03-20T19:46:59.399Z,92956.30
2018-03-20T19:49:26.235Z,92950.17
2018-03-20T19:51:52.914Z,92962.08
2018-03-20T19:54:19.708Z,92964.95
2018-03-20T19:56:46.709Z,92964.09
2018-03-20T19:59:13.579Z,92966.97
2018-03-20T20:01:40.306Z,92964.41
2018-03-20T20:04:07.022Z,92957.61
2018-03-20T20:06:33.727Z,92958.72
2018-03-20T20:09:00.532Z,92962.25
2018-03-20T20:11:27.400Z,92971.19
2018-03-20T20:13:54.153Z,92963.23
2018-03-20T20:16:21.008Z,92961.86
2018-03-20T20:18:47.798Z,92961.20
2018-03-20T20:21:14.618Z,92969.25
2018-03-20T20:23:41.409Z,92969.53
2018-03-20T20:26:08.329Z,92970.95
2018-03-20T20:28:34.870Z,92966.44
2018-03-20T20:31:01.700Z,92965.03
2018-03-20T20:33:28.733Z,92961.22
2018-03-20T20:35:56.051Z,92973.20
2018-03-20T20:38:22.769Z,92972.45
2018-03-20T20:40:49.551Z,92972.03
2018-03-20T20:43:16.144Z,92973.13
2018-03-20T20:45:42.718Z,92974.70
2018-03-20T20:48:09.560Z,92977.20
2018-03-20T20:50:36.136Z,92977.08
2018-03-20T20:53:02.879Z,92979.17
2018-03-20T20:55:29.323Z,92980.90
2018-03-20T20:57:55.693Z,92981.25
2018-03-20T21:00:22.211Z,92981.95
2018-03-20T21:02:48.706Z,92982.38
2018-03-20T21:05:15.230Z,92980.20
2018-03-20T21:07:41.871Z,92980.63
2018-03-20T21:10:08.303Z,92978.38
2018-03-20T21:12:34.751Z,92978.21
2018-03-20T21:15:01.305Z,92981.17
2018-03-20T21:17:27.736Z,92984.85
2018-03-20T21:19:54.305Z,92985.77
2018-03-20T21:22:20.814Z,92987.70
2018-03-20T21:24:47.161Z,92980.87
2018-03-20T21:27:13.533Z,92986.48
2018-03-20T21:29:40.061Z,92987.34
2018-03-20T21:32:06.467Z,92995.67
2018-03-20T21:34:32.904Z,93001.32
2018-03-20T21:36:59.284Z,93006.28
2018-03-20T21:39:25.761Z,93010.55
2018-03-20T21:41:52.187Z,93018.69
2018-03-20T21:44:18.528Z,93017.13
2018-03-20T21:46:44.866Z,93017.70
2018-03-20T21:49:11.338Z,93021.67
2018-03-20T21:51:38.013Z,93021.45
2018-03-20T21:54:04.535Z,93018.67
2018-03-20T21:56:30.906Z,93024.45
2018-03-20T21:58:57.313Z,93020.59
2018-03-20T22:01:23.668Z,93024.67
2018-03-20T22:03:50.051Z,93025.97
2018-03-20T22:06:16.460Z,93029.83
2018-03-20T22:08:42.787Z,93028.17
2018-03-20T22:11:09.252Z,93032.86
2018-03-20T22:13:35.573Z,93033.27
2018-03-20T22:16:02.434Z,93032.80
2018-03-20T22:18:28.991Z,93022.57
2018-03-20T22:20:55.396Z,93012.35
2018-03-20T22:23:21.757Z,93015.73
2018-03-20T22:25:48.174Z,93012.63
2018-03-20T22:28:14.553Z,93007.48
2018-03-20T22:30:41.040Z,93009.25
2018-03-20T22:33:07.570Z,93007.08
2018-03-20T22:35:33.975Z,93001.47
2018-03-20T22:38:00.351Z,93012.56
2018-03-20T22:40:26.925Z,93009.17
2018-03-20T22:42:53.469Z,93014.74
2018-03-20T22:45:19.817Z,93012.04
2018-03-20T22:47:46.357Z,93014.02
2018-03-20T22:50:12.890Z,93018.75
2018-03-20T22:52:39.255Z,93026.05
2018-03-20T22:55:05.791Z,93027.06
2018-03-20T22:57:32.263Z,93036.33
2018-03-20T22:59:58.883Z,93043.89
2018-03-20T23:02:25.367Z,93044.53
2018-03-20T23:04:51.967Z,93046.16
2018-03-20T23:07:18.409Z,93042.77
2018-03-20T23:09:44.844Z,93040.59
2018-03-20T23:12:11.325Z,93036.27
2018-03-20T23:14:37.696Z,93036.27
2018-03-20T23:17:04.229Z,93040.84
2018-03-20T23:19:30.721Z,93040.02
2018-03-20T23:21:57.236Z,93038.77
2018-03-20T23:24:23.605Z,93041.64
2018-03-20T23:26:50.008Z,93038.25
2018-03-20T23:29:16.498Z,93039.23
2018-03-20T23:31:42.878Z,93032.70
2018-03-20T23:34:09.226Z,93036.16
2018-03-20T23:36:35.558Z,93037.16
2018-03-20T23:39:01.963Z,93033.41
2018-03-20T23:41:28.400Z,93033.58
2018-03-20T23:43:54.708Z,93031.42
2018-03-20T23:46:21.066Z,93035.70
2018-03-20T23:48:47.372Z,93038.38
2018-03-20T23:51:13.972Z,93041.48
2018-03-20T23:53:40.475Z,93036.75
2018-03-20T23:56:06.819Z,93024.77
2018-03-20T23:58:33.191Z,93018.33
